Lajes, Brazil
Current Conditions -  °F | °C
As of 11:00 AM on Monday 22 Dec 2014 (Local Time) from SBNT Reporting Station
Broken Clouds Broken Clouds  
Wind Chill: 84°   Ceiling: 2100
Heat Index: 90°   Visibility: 6mi
Dew Point: 72°   Wind: 16mph
Humidity: 66%   Direction: 120°ESE
Pressure: 29.94"   Gusts: NA
Location:  5.7°S, 36.24°W
Report Text: SBNT 221400Z 12014KT 9999 BKN021 SCT080 29/22 Q1014
Loading
Personal Weather Stations






























Interactive Weather Map New forecast layout! Learn more

10-Day Weather Forecast

Advertisements
Track Severe Weather on mobile